sensor_id;sensor_type;location;lat;lon;timestamp;P1;durP1;ratioP1;P2;durP2;ratioP2
51214;SDS011;63849;47.546;19.254;2023-02-28T00:00:30;22.73;;;13.80;;
51214;SDS011;63849;47.546;19.254;2023-02-28T00:02:56;19.17;;;13.20;;
51214;SDS011;63849;47.546;19.254;2023-02-28T00:05:23;21.67;;;13.27;;
51214;SDS011;63849;47.546;19.254;2023-02-28T00:07:50;18.90;;;12.20;;
51214;SDS011;63849;47.546;19.254;2023-02-28T00:10:20;16.63;;;11.43;;
51214;SDS011;63849;47.546;19.254;2023-02-28T00:12:48;18.40;;;12.40;;
51214;SDS011;63849;47.546;19.254;2023-02-28T00:15:15;18.88;;;11.65;;
51214;SDS011;63849;47.546;19.254;2023-02-28T00:17:42;18.20;;;12.15;;
51214;SDS011;63849;47.546;19.254;2023-02-28T00:20:09;18.70;;;12.65;;
51214;SDS011;63849;47.546;19.254;2023-02-28T00:22:37;21.52;;;13.65;;
51214;SDS011;63849;47.546;19.254;2023-02-28T00:25:05;22.45;;;13.70;;
51214;SDS011;63849;47.546;19.254;2023-02-28T00:27:32;22.73;;;14.13;;
51214;SDS011;63849;47.546;19.254;2023-02-28T00:30:00;24.85;;;13.25;;
51214;SDS011;63849;47.546;19.254;2023-02-28T00:32:27;22.10;;;11.73;;
51214;SDS011;63849;47.546;19.254;2023-02-28T00:34:55;22.02;;;13.07;;
51214;SDS011;63849;47.546;19.254;2023-02-28T00:37:22;16.10;;;11.30;;
51214;SDS011;63849;47.546;19.254;2023-02-28T00:39:48;19.08;;;11.90;;
51214;SDS011;63849;47.546;19.254;2023-02-28T00:42:14;18.38;;;10.50;;
51214;SDS011;63849;47.546;19.254;2023-02-28T00:44:39;18.42;;;11.55;;
51214;SDS011;63849;47.546;19.254;2023-02-28T00:47:05;17.60;;;10.90;;
51214;SDS011;63849;47.546;19.254;2023-02-28T00:49:31;17.58;;;11.13;;
51214;SDS011;63849;47.546;19.254;2023-02-28T00:51:57;17.75;;;10.48;;
51214;SDS011;63849;47.546;19.254;2023-02-28T00:54:23;17.15;;;11.18;;
51214;SDS011;63849;47.546;19.254;2023-02-28T00:56:49;21.08;;;10.82;;
51214;SDS011;63849;47.546;19.254;2023-02-28T00:59:18;17.15;;;9.90;;
51214;SDS011;63849;47.546;19.254;2023-02-28T01:01:45;18.35;;;9.95;;
51214;SDS011;63849;47.546;19.254;2023-02-28T01:04:12;16.17;;;10.70;;
51214;SDS011;63849;47.546;19.254;2023-02-28T01:06:38;15.65;;;10.32;;
51214;SDS011;63849;47.546;19.254;2023-02-28T01:09:05;13.13;;;8.90;;
51214;SDS011;63849;47.546;19.254;2023-02-28T01:11:31;15.20;;;9.32;;
51214;SDS011;63849;47.546;19.254;2023-02-28T01:13:58;16.75;;;9.50;;
51214;SDS011;63849;47.546;19.254;2023-02-28T01:16:25;13.85;;;8.90;;
51214;SDS011;63849;47.546;19.254;2023-02-28T01:18:56;18.30;;;9.27;;
51214;SDS011;63849;47.546;19.254;2023-02-28T01:21:23;14.98;;;9.70;;
51214;SDS011;63849;47.546;19.254;2023-02-28T01:23:49;15.82;;;9.52;;
51214;SDS011;63849;47.546;19.254;2023-02-28T01:26:17;15.50;;;10.43;;
51214;SDS011;63849;47.546;19.254;2023-02-28T01:28:44;15.32;;;9.82;;
51214;SDS011;63849;47.546;19.254;2023-02-28T01:31:10;16.63;;;9.50;;
51214;SDS011;63849;47.546;19.254;2023-02-28T01:33:37;13.98;;;9.35;;
51214;SDS011;63849;47.546;19.254;2023-02-28T01:36:05;15.02;;;8.95;;
51214;SDS011;63849;47.546;19.254;2023-02-28T01:38:50;15.25;;;9.23;;
51214;SDS011;63849;47.546;19.254;2023-02-28T01:41:18;16.77;;;10.40;;
51214;SDS011;63849;47.546;19.254;2023-02-28T01:46:15;14.68;;;10.38;;
51214;SDS011;63849;47.546;19.254;2023-02-28T01:48:42;14.73;;;10.45;;
51214;SDS011;63849;47.546;19.254;2023-02-28T01:51:21;19.45;;;10.45;;
51214;SDS011;63849;47.546;19.254;2023-02-28T01:54:20;17.35;;;11.25;;
51214;SDS011;63849;47.546;19.254;2023-02-28T01:57:12;14.70;;;10.45;;
51214;SDS011;63849;47.546;19.254;2023-02-28T01:59:54;16.58;;;10.93;;
51214;SDS011;63849;47.546;19.254;2023-02-28T02:02:25;15.95;;;9.55;;
51214;SDS011;63849;47.546;19.254;2023-02-28T02:07:29;13.95;;;9.63;;
51214;SDS011;63849;47.546;19.254;2023-02-28T02:10:00;15.95;;;9.60;;
51214;SDS011;63849;47.546;19.254;2023-02-28T02:13:08;12.88;;;8.52;;
51214;SDS011;63849;47.546;19.254;2023-02-28T02:35:38;12.20;;;8.05;;
51214;SDS011;63849;47.546;19.254;2023-02-28T02:44:07;17.30;;;9.63;;
51214;SDS011;63849;47.546;19.254;2023-02-28T02:48:56;19.83;;;9.68;;
51214;SDS011;63849;47.546;19.254;2023-02-28T02:51:27;12.27;;;7.28;;
51214;SDS011;63849;47.546;19.254;2023-02-28T02:53:56;13.95;;;8.20;;
51214;SDS011;63849;47.546;19.254;2023-02-28T02:56:44;14.73;;;8.00;;
51214;SDS011;63849;47.546;19.254;2023-02-28T02:59:13;11.95;;;6.78;;
51214;SDS011;63849;47.546;19.254;2023-02-28T03:01:46;12.55;;;7.50;;
51214;SDS011;63849;47.546;19.254;2023-02-28T03:04:20;10.73;;;6.75;;
51214;SDS011;63849;47.546;19.254;2023-02-28T03:06:48;11.60;;;7.40;;
51214;SDS011;63849;47.546;19.254;2023-02-28T03:09:23;10.02;;;6.80;;
51214;SDS011;63849;47.546;19.254;2023-02-28T03:11:50;13.40;;;7.00;;
51214;SDS011;63849;47.546;19.254;2023-02-28T03:17:20;9.77;;;6.40;;
51214;SDS011;63849;47.546;19.254;2023-02-28T03:20:31;10.52;;;6.15;;
51214;SDS011;63849;47.546;19.254;2023-02-28T03:23:19;9.57;;;5.95;;
51214;SDS011;63849;47.546;19.254;2023-02-28T03:25:56;10.80;;;6.33;;
51214;SDS011;63849;47.546;19.254;2023-02-28T03:31:32;11.38;;;5.85;;
51214;SDS011;63849;47.546;19.254;2023-02-28T03:34:08;11.10;;;6.10;;
51214;SDS011;63849;47.546;19.254;2023-02-28T03:36:44;11.13;;;6.47;;
51214;SDS011;63849;47.546;19.254;2023-02-28T03:39:17;13.13;;;6.30;;
51214;SDS011;63849;47.546;19.254;2023-02-28T03:42:00;10.82;;;6.82;;
51214;SDS011;63849;47.546;19.254;2023-02-28T03:44:32;10.85;;;6.90;;
51214;SDS011;63849;47.546;19.254;2023-02-28T03:47:05;10.48;;;6.60;;
51214;SDS011;63849;47.546;19.254;2023-02-28T03:49:46;9.30;;;6.22;;
51214;SDS011;63849;47.546;19.254;2023-02-28T03:52:19;9.48;;;5.90;;
51214;SDS011;63849;47.546;19.254;2023-02-28T03:54:50;10.25;;;6.53;;
51214;SDS011;63849;47.546;19.254;2023-02-28T04:00:14;10.10;;;6.93;;
51214;SDS011;63849;47.546;19.254;2023-02-28T04:02:46;13.52;;;6.97;;
51214;SDS011;63849;47.546;19.254;2023-02-28T04:05:18;12.18;;;7.20;;
51214;SDS011;63849;47.546;19.254;2023-02-28T04:07:47;11.50;;;6.53;;
51214;SDS011;63849;47.546;19.254;2023-02-28T04:10:14;10.48;;;6.80;;
51214;SDS011;63849;47.546;19.254;2023-02-28T04:12:41;13.30;;;7.93;;
51214;SDS011;63849;47.546;19.254;2023-02-28T04:15:07;11.70;;;6.65;;
51214;SDS011;63849;47.546;19.254;2023-02-28T04:17:33;10.48;;;7.10;;
51214;SDS011;63849;47.546;19.254;2023-02-28T04:19:59;10.23;;;6.90;;
51214;SDS011;63849;47.546;19.254;2023-02-28T04:22:25;10.63;;;6.90;;
51214;SDS011;63849;47.546;19.254;2023-02-28T04:24:53;12.40;;;8.07;;
51214;SDS011;63849;47.546;19.254;2023-02-28T04:27:19;15.15;;;9.90;;
51214;SDS011;63849;47.546;19.254;2023-02-28T04:29:46;18.58;;;10.55;;
51214;SDS011;63849;47.546;19.254;2023-02-28T04:32:12;16.38;;;9.68;;
51214;SDS011;63849;47.546;19.254;2023-02-28T04:34:38;15.77;;;9.95;;
51214;SDS011;63849;47.546;19.254;2023-02-28T04:37:04;17.50;;;9.60;;
51214;SDS011;63849;47.546;19.254;2023-02-28T04:39:34;16.25;;;10.13;;
51214;SDS011;63849;47.546;19.254;2023-02-28T04:42:01;14.75;;;9.68;;
51214;SDS011;63849;47.546;19.254;2023-02-28T04:44:27;15.57;;;10.18;;
51214;SDS011;63849;47.546;19.254;2023-02-28T04:46:52;15.70;;;9.77;;
51214;SDS011;63849;47.546;19.254;2023-02-28T04:49:19;17.40;;;9.48;;
51214;SDS011;63849;47.546;19.254;2023-02-28T04:51:45;18.52;;;10.20;;
51214;SDS011;63849;47.546;19.254;2023-02-28T04:54:11;23.98;;;11.63;;
51214;SDS011;63849;47.546;19.254;2023-02-28T04:56:38;20.42;;;10.15;;
51214;SDS011;63849;47.546;19.254;2023-02-28T04:59:04;24.77;;;10.57;;
51214;SDS011;63849;47.546;19.254;2023-02-28T05:01:31;19.50;;;9.68;;
51214;SDS011;63849;47.546;19.254;2023-02-28T05:03:59;16.73;;;9.30;;
51214;SDS011;63849;47.546;19.254;2023-02-28T05:06:27;13.55;;;8.55;;
51214;SDS011;63849;47.546;19.254;2023-02-28T05:08:54;17.45;;;9.50;;
51214;SDS011;63849;47.546;19.254;2023-02-28T05:11:20;17.80;;;9.75;;
51214;SDS011;63849;47.546;19.254;2023-02-28T05:13:51;18.63;;;9.43;;
51214;SDS011;63849;47.546;19.254;2023-02-28T05:16:19;17.10;;;9.18;;
51214;SDS011;63849;47.546;19.254;2023-02-28T05:18:45;13.75;;;9.23;;
51214;SDS011;63849;47.546;19.254;2023-02-28T05:21:25;12.27;;;9.18;;
51214;SDS011;63849;47.546;19.254;2023-02-28T05:23:54;14.00;;;8.52;;
51214;SDS011;63849;47.546;19.254;2023-02-28T05:26:22;15.95;;;10.90;;
51214;SDS011;63849;47.546;19.254;2023-02-28T05:28:48;15.20;;;9.75;;
51214;SDS011;63849;47.546;19.254;2023-02-28T05:31:15;15.68;;;9.77;;
51214;SDS011;63849;47.546;19.254;2023-02-28T05:33:41;15.18;;;9.23;;
51214;SDS011;63849;47.546;19.254;2023-02-28T05:36:08;12.18;;;8.10;;
51214;SDS011;63849;47.546;19.254;2023-02-28T05:38:34;17.02;;;8.98;;
51214;SDS011;63849;47.546;19.254;2023-02-28T05:41:00;13.82;;;9.00;;
51214;SDS011;63849;47.546;19.254;2023-02-28T05:43:29;11.93;;;8.00;;
51214;SDS011;63849;47.546;19.254;2023-02-28T05:45:55;16.50;;;9.65;;
51214;SDS011;63849;47.546;19.254;2023-02-28T05:48:21;17.10;;;9.75;;
51214;SDS011;63849;47.546;19.254;2023-02-28T05:50:47;17.70;;;9.45;;
51214;SDS011;63849;47.546;19.254;2023-02-28T05:53:13;17.30;;;9.10;;
51214;SDS011;63849;47.546;19.254;2023-02-28T05:55:39;17.70;;;9.30;;
51214;SDS011;63849;47.546;19.254;2023-02-28T05:58:06;17.42;;;8.00;;
51214;SDS011;63849;47.546;19.254;2023-02-28T06:00:32;18.02;;;10.23;;
51214;SDS011;63849;47.546;19.254;2023-02-28T06:02:57;17.70;;;9.95;;
51214;SDS011;63849;47.546;19.254;2023-02-28T06:05:26;18.67;;;11.63;;
51214;SDS011;63849;47.546;19.254;2023-02-28T06:07:52;16.73;;;9.98;;
51214;SDS011;63849;47.546;19.254;2023-02-28T06:10:18;17.90;;;9.52;;
51214;SDS011;63849;47.546;19.254;2023-02-28T06:12:44;11.93;;;7.88;;
51214;SDS011;63849;47.546;19.254;2023-02-28T06:15:14;14.48;;;9.38;;
51214;SDS011;63849;47.546;19.254;2023-02-28T06:17:41;16.08;;;9.15;;
51214;SDS011;63849;47.546;19.254;2023-02-28T06:20:08;15.02;;;8.90;;
51214;SDS011;63849;47.546;19.254;2023-02-28T06:22:36;19.05;;;10.93;;
51214;SDS011;63849;47.546;19.254;2023-02-28T06:25:12;19.92;;;11.60;;
51214;SDS011;63849;47.546;19.254;2023-02-28T06:27:37;22.98;;;11.38;;
51214;SDS011;63849;47.546;19.254;2023-02-28T06:30:03;24.27;;;12.15;;
51214;SDS011;63849;47.546;19.254;2023-02-28T06:32:29;16.15;;;9.98;;
51214;SDS011;63849;47.546;19.254;2023-02-28T06:34:55;17.17;;;9.05;;
51214;SDS011;63849;47.546;19.254;2023-02-28T06:37:23;17.58;;;9.85;;
51214;SDS011;63849;47.546;19.254;2023-02-28T06:39:51;14.15;;;9.07;;
51214;SDS011;63849;47.546;19.254;2023-02-28T06:42:18;14.38;;;8.88;;
51214;SDS011;63849;47.546;19.254;2023-02-28T06:44:49;15.88;;;10.15;;
51214;SDS011;63849;47.546;19.254;2023-02-28T06:47:16;21.48;;;12.45;;
51214;SDS011;63849;47.546;19.254;2023-02-28T06:49:42;16.85;;;10.48;;
51214;SDS011;63849;47.546;19.254;2023-02-28T06:52:10;16.88;;;9.20;;
51214;SDS011;63849;47.546;19.254;2023-02-28T06:54:36;18.50;;;9.15;;
51214;SDS011;63849;47.546;19.254;2023-02-28T06:57:02;16.40;;;9.23;;
51214;SDS011;63849;47.546;19.254;2023-02-28T06:59:28;12.75;;;7.75;;
51214;SDS011;63849;47.546;19.254;2023-02-28T07:01:58;15.40;;;8.68;;
51214;SDS011;63849;47.546;19.254;2023-02-28T07:04:29;16.00;;;8.77;;
51214;SDS011;63849;47.546;19.254;2023-02-28T07:06:55;22.30;;;11.20;;
51214;SDS011;63849;47.546;19.254;2023-02-28T07:09:22;15.45;;;10.10;;
51214;SDS011;63849;47.546;19.254;2023-02-28T07:11:48;16.83;;;9.63;;
51214;SDS011;63849;47.546;19.254;2023-02-28T07:14:16;13.77;;;8.63;;
51214;SDS011;63849;47.546;19.254;2023-02-28T07:16:41;13.75;;;9.13;;
51214;SDS011;63849;47.546;19.254;2023-02-28T07:19:07;12.88;;;8.70;;
51214;SDS011;63849;47.546;19.254;2023-02-28T07:21:33;13.43;;;8.32;;
51214;SDS011;63849;47.546;19.254;2023-02-28T07:23:58;12.40;;;7.72;;
51214;SDS011;63849;47.546;19.254;2023-02-28T07:26:24;17.70;;;8.93;;
51214;SDS011;63849;47.546;19.254;2023-02-28T07:28:50;15.55;;;7.85;;
51214;SDS011;63849;47.546;19.254;2023-02-28T07:31:16;12.05;;;7.80;;
51214;SDS011;63849;47.546;19.254;2023-02-28T07:33:43;12.18;;;7.82;;
51214;SDS011;63849;47.546;19.254;2023-02-28T07:36:13;12.43;;;8.38;;
51214;SDS011;63849;47.546;19.254;2023-02-28T07:38:43;10.27;;;7.45;;
51214;SDS011;63849;47.546;19.254;2023-02-28T07:41:11;12.85;;;7.55;;
51214;SDS011;63849;47.546;19.254;2023-02-28T07:43:37;13.82;;;7.95;;
51214;SDS011;63849;47.546;19.254;2023-02-28T07:48:30;13.30;;;7.93;;
51214;SDS011;63849;47.546;19.254;2023-02-28T07:50:56;13.80;;;8.30;;
51214;SDS011;63849;47.546;19.254;2023-02-28T07:53:23;14.10;;;9.23;;
51214;SDS011;63849;47.546;19.254;2023-02-28T07:55:49;14.98;;;9.30;;
51214;SDS011;63849;47.546;19.254;2023-02-28T07:58:15;14.20;;;9.48;;
51214;SDS011;63849;47.546;19.254;2023-02-28T08:00:41;12.23;;;8.23;;
51214;SDS011;63849;47.546;19.254;2023-02-28T08:03:13;12.52;;;7.60;;
51214;SDS011;63849;47.546;19.254;2023-02-28T08:05:39;18.85;;;8.13;;
51214;SDS011;63849;47.546;19.254;2023-02-28T08:08:06;15.05;;;8.82;;
51214;SDS011;63849;47.546;19.254;2023-02-28T08:10:32;11.27;;;8.18;;
51214;SDS011;63849;47.546;19.254;2023-02-28T08:12:58;13.07;;;7.82;;
51214;SDS011;63849;47.546;19.254;2023-02-28T08:15:24;11.93;;;8.90;;
51214;SDS011;63849;47.546;19.254;2023-02-28T08:17:50;11.55;;;7.10;;
51214;SDS011;63849;47.546;19.254;2023-02-28T08:20:15;10.73;;;7.45;;
51214;SDS011;63849;47.546;19.254;2023-02-28T08:22:44;13.13;;;7.82;;
51214;SDS011;63849;47.546;19.254;2023-02-28T08:25:10;9.45;;;6.97;;
51214;SDS011;63849;47.546;19.254;2023-02-28T08:27:35;14.68;;;7.85;;
51214;SDS011;63849;47.546;19.254;2023-02-28T08:30:02;13.75;;;8.18;;
51214;SDS011;63849;47.546;19.254;2023-02-28T08:32:28;14.55;;;8.48;;
51214;SDS011;63849;47.546;19.254;2023-02-28T08:34:54;11.57;;;7.18;;
51214;SDS011;63849;47.546;19.254;2023-02-28T08:37:19;13.38;;;8.77;;
51214;SDS011;63849;47.546;19.254;2023-02-28T08:39:48;9.98;;;7.00;;
51214;SDS011;63849;47.546;19.254;2023-02-28T08:42:14;10.38;;;7.13;;
51214;SDS011;63849;47.546;19.254;2023-02-28T08:44:40;12.90;;;7.40;;
51214;SDS011;63849;47.546;19.254;2023-02-28T08:47:06;10.75;;;7.38;;
51214;SDS011;63849;47.546;19.254;2023-02-28T08:49:31;11.20;;;7.25;;
51214;SDS011;63849;47.546;19.254;2023-02-28T08:51:59;12.13;;;7.00;;
51214;SDS011;63849;47.546;19.254;2023-02-28T08:54:25;14.50;;;7.20;;
51214;SDS011;63849;47.546;19.254;2023-02-28T08:56:54;11.18;;;6.47;;
51214;SDS011;63849;47.546;19.254;2023-02-28T08:59:19;10.23;;;7.15;;
51214;SDS011;63849;47.546;19.254;2023-02-28T09:01:45;10.65;;;6.35;;
51214;SDS011;63849;47.546;19.254;2023-02-28T09:04:11;12.98;;;7.18;;
51214;SDS011;63849;47.546;19.254;2023-02-28T09:06:37;10.60;;;7.30;;
51214;SDS011;63849;47.546;19.254;2023-02-28T09:09:03;14.55;;;7.97;;
51214;SDS011;63849;47.546;19.254;2023-02-28T09:11:31;10.82;;;8.10;;
51214;SDS011;63849;47.546;19.254;2023-02-28T09:13:57;10.48;;;7.05;;
51214;SDS011;63849;47.546;19.254;2023-02-28T09:16:25;10.27;;;7.00;;
51214;SDS011;63849;47.546;19.254;2023-02-28T09:18:51;17.00;;;8.90;;
51214;SDS011;63849;47.546;19.254;2023-02-28T09:21:17;14.40;;;7.53;;
51214;SDS011;63849;47.546;19.254;2023-02-28T09:23:45;10.13;;;6.68;;
51214;SDS011;63849;47.546;19.254;2023-02-28T09:26:13;8.48;;;5.88;;
51214;SDS011;63849;47.546;19.254;2023-02-28T09:28:40;9.40;;;6.28;;
51214;SDS011;63849;47.546;19.254;2023-02-28T09:31:10;16.20;;;7.20;;
51214;SDS011;63849;47.546;19.254;2023-02-28T09:33:41;11.07;;;7.15;;
51214;SDS011;63849;47.546;19.254;2023-02-28T09:36:09;9.20;;;6.10;;
51214;SDS011;63849;47.546;19.254;2023-02-28T09:38:37;8.63;;;5.65;;
51214;SDS011;63849;47.546;19.254;2023-02-28T09:41:04;7.43;;;5.63;;
51214;SDS011;63849;47.546;19.254;2023-02-28T09:43:44;8.52;;;5.65;;
51214;SDS011;63849;47.546;19.254;2023-02-28T09:46:25;8.20;;;5.38;;
51214;SDS011;63849;47.546;19.254;2023-02-28T09:48:52;9.23;;;5.57;;
51214;SDS011;63849;47.546;19.254;2023-02-28T09:51:28;7.95;;;5.97;;
51214;SDS011;63849;47.546;19.254;2023-02-28T09:54:18;10.10;;;6.03;;
51214;SDS011;63849;47.546;19.254;2023-02-28T09:56:53;11.15;;;5.70;;
51214;SDS011;63849;47.546;19.254;2023-02-28T10:02:21;8.18;;;5.63;;
51214;SDS011;63849;47.546;19.254;2023-02-28T10:04:59;10.35;;;6.10;;
51214;SDS011;63849;47.546;19.254;2023-02-28T10:10:20;5.85;;;4.70;;
51214;SDS011;63849;47.546;19.254;2023-02-28T10:12:49;8.30;;;5.25;;
51214;SDS011;63849;47.546;19.254;2023-02-28T10:15:21;8.65;;;5.00;;
51214;SDS011;63849;47.546;19.254;2023-02-28T10:17:53;9.40;;;5.88;;
51214;SDS011;63849;47.546;19.254;2023-02-28T10:20:22;9.00;;;5.05;;
51214;SDS011;63849;47.546;19.254;2023-02-28T10:23:12;7.15;;;4.30;;
51214;SDS011;63849;47.546;19.254;2023-02-28T10:25:44;7.25;;;4.88;;
51214;SDS011;63849;47.546;19.254;2023-02-28T10:28:15;6.32;;;4.95;;
51214;SDS011;63849;47.546;19.254;2023-02-28T10:30:49;10.35;;;5.68;;
51214;SDS011;63849;47.546;19.254;2023-02-28T10:33:30;6.97;;;5.20;;
51214;SDS011;63849;47.546;19.254;2023-02-28T10:35:59;6.68;;;4.45;;
51214;SDS011;63849;47.546;19.254;2023-02-28T10:38:44;6.50;;;4.50;;
51214;SDS011;63849;47.546;19.254;2023-02-28T10:43:42;7.72;;;5.00;;
51214;SDS011;63849;47.546;19.254;2023-02-28T10:46:11;7.78;;;4.82;;
51214;SDS011;63849;47.546;19.254;2023-02-28T10:49:41;7.97;;;5.05;;
51214;SDS011;63849;47.546;19.254;2023-02-28T10:52:00;8.07;;;4.75;;
51214;SDS011;63849;47.546;19.254;2023-02-28T10:57:17;7.65;;;4.38;;
51214;SDS011;63849;47.546;19.254;2023-02-28T10:59:45;8.30;;;4.20;;
51214;SDS011;63849;47.546;19.254;2023-02-28T11:02:29;7.22;;;4.40;;
51214;SDS011;63849;47.546;19.254;2023-02-28T11:04:58;7.15;;;5.32;;
51214;SDS011;63849;47.546;19.254;2023-02-28T11:07:25;8.57;;;5.40;;
51214;SDS011;63849;47.546;19.254;2023-02-28T11:09:56;7.80;;;5.07;;
51214;SDS011;63849;47.546;19.254;2023-02-28T11:12:31;7.90;;;5.75;;
51214;SDS011;63849;47.546;19.254;2023-02-28T11:15:01;11.75;;;6.55;;
51214;SDS011;63849;47.546;19.254;2023-02-28T11:17:31;11.27;;;6.13;;
51214;SDS011;63849;47.546;19.254;2023-02-28T11:20:00;11.05;;;6.40;;
51214;SDS011;63849;47.546;19.254;2023-02-28T11:22:32;13.27;;;7.03;;
51214;SDS011;63849;47.546;19.254;2023-02-28T11:25:07;10.02;;;6.30;;
51214;SDS011;63849;47.546;19.254;2023-02-28T11:27:47;9.95;;;4.95;;
51214;SDS011;63849;47.546;19.254;2023-02-28T11:32:54;9.32;;;5.50;;
51214;SDS011;63849;47.546;19.254;2023-02-28T11:35:30;10.32;;;6.22;;
51214;SDS011;63849;47.546;19.254;2023-02-28T11:38:01;6.93;;;4.85;;
51214;SDS011;63849;47.546;19.254;2023-02-28T11:40:34;6.97;;;5.15;;
51214;SDS011;63849;47.546;19.254;2023-02-28T11:51:55;6.78;;;5.00;;
51214;SDS011;63849;47.546;19.254;2023-02-28T11:54:46;8.77;;;5.90;;
51214;SDS011;63849;47.546;19.254;2023-02-28T11:59:54;7.25;;;5.93;;
51214;SDS011;63849;47.546;19.254;2023-02-28T12:08:15;11.68;;;5.88;;
51214;SDS011;63849;47.546;19.254;2023-02-28T12:13:41;9.68;;;6.55;;
51214;SDS011;63849;47.546;19.254;2023-02-28T12:16:23;8.02;;;5.82;;
51214;SDS011;63849;47.546;19.254;2023-02-28T12:21:40;7.57;;;5.03;;
51214;SDS011;63849;47.546;19.254;2023-02-28T12:27:02;7.13;;;5.47;;
51214;SDS011;63849;47.546;19.254;2023-02-28T12:29:40;6.43;;;5.43;;
51214;SDS011;63849;47.546;19.254;2023-02-28T12:32:21;10.27;;;4.95;;
51214;SDS011;63849;47.546;19.254;2023-02-28T12:35:10;10.90;;;5.97;;
51214;SDS011;63849;47.546;19.254;2023-02-28T12:40:25;6.68;;;5.43;;
51214;SDS011;63849;47.546;19.254;2023-02-28T12:42:58;7.10;;;5.45;;
51214;SDS011;63849;47.546;19.254;2023-02-28T12:48:20;6.63;;;5.57;;
51214;SDS011;63849;47.546;19.254;2023-02-28T12:50:50;6.07;;;5.13;;
51214;SDS011;63849;47.546;19.254;2023-02-28T12:53:25;10.27;;;5.40;;
51214;SDS011;63849;47.546;19.254;2023-02-28T12:56:08;7.00;;;4.97;;
51214;SDS011;63849;47.546;19.254;2023-02-28T13:04:42;13.25;;;6.97;;
51214;SDS011;63849;47.546;19.254;2023-02-28T13:11:01;10.52;;;6.35;;
51214;SDS011;63849;47.546;19.254;2023-02-28T13:13:21;7.68;;;5.30;;
51214;SDS011;63849;47.546;19.254;2023-02-28T13:18:36;8.65;;;5.78;;
51214;SDS011;63849;47.546;19.254;2023-02-28T13:21:21;8.90;;;6.57;;
51214;SDS011;63849;47.546;19.254;2023-02-28T13:29:02;9.38;;;6.65;;
51214;SDS011;63849;47.546;19.254;2023-02-28T13:35:34;8.02;;;5.78;;
51214;SDS011;63849;47.546;19.254;2023-02-28T13:39:48;9.18;;;6.28;;
51214;SDS011;63849;47.546;19.254;2023-02-28T13:47:44;10.20;;;6.45;;
51214;SDS011;63849;47.546;19.254;2023-02-28T13:55:43;15.82;;;7.50;;
51214;SDS011;63849;47.546;19.254;2023-02-28T14:06:50;11.93;;;7.25;;
51214;SDS011;63849;47.546;19.254;2023-02-28T14:09:23;10.85;;;6.97;;
51214;SDS011;63849;47.546;19.254;2023-02-28T14:11:56;17.20;;;10.27;;
51214;SDS011;63849;47.546;19.254;2023-02-28T14:17:05;21.83;;;8.77;;
51214;SDS011;63849;47.546;19.254;2023-02-28T14:19:35;16.17;;;8.93;;
51214;SDS011;63849;47.546;19.254;2023-02-28T14:27:43;21.73;;;10.30;;
51214;SDS011;63849;47.546;19.254;2023-02-28T14:30:25;13.68;;;7.47;;
51214;SDS011;63849;47.546;19.254;2023-02-28T14:38:21;10.52;;;6.85;;
51214;SDS011;63849;47.546;19.254;2023-02-28T14:40:51;9.57;;;6.93;;
51214;SDS011;63849;47.546;19.254;2023-02-28T14:43:24;12.73;;;8.30;;
51214;SDS011;63849;47.546;19.254;2023-02-28T14:45:54;17.40;;;10.50;;
51214;SDS011;63849;47.546;19.254;2023-02-28T14:48:22;12.32;;;8.50;;
51214;SDS011;63849;47.546;19.254;2023-02-28T14:50:51;11.05;;;7.97;;
51214;SDS011;63849;47.546;19.254;2023-02-28T14:53:28;14.80;;;9.73;;
51214;SDS011;63849;47.546;19.254;2023-02-28T14:55:59;10.88;;;8.48;;
51214;SDS011;63849;47.546;19.254;2023-02-28T14:58:26;19.83;;;10.57;;
51214;SDS011;63849;47.546;19.254;2023-02-28T15:00:55;14.38;;;9.20;;
51214;SDS011;63849;47.546;19.254;2023-02-28T15:03:30;13.90;;;9.77;;
51214;SDS011;63849;47.546;19.254;2023-02-28T15:06:14;11.70;;;8.43;;
51214;SDS011;63849;47.546;19.254;2023-02-28T15:08:43;13.13;;;9.23;;
51214;SDS011;63849;47.546;19.254;2023-02-28T15:11:19;13.32;;;9.88;;
51214;SDS011;63849;47.546;19.254;2023-02-28T15:16:15;11.73;;;7.80;;
51214;SDS011;63849;47.546;19.254;2023-02-28T15:18:52;11.23;;;7.55;;
51214;SDS011;63849;47.546;19.254;2023-02-28T15:23:59;12.23;;;8.98;;
51214;SDS011;63849;47.546;19.254;2023-02-28T15:26:34;11.10;;;8.55;;
51214;SDS011;63849;47.546;19.254;2023-02-28T15:29:08;13.43;;;8.57;;
51214;SDS011;63849;47.546;19.254;2023-02-28T15:31:49;13.75;;;8.65;;
51214;SDS011;63849;47.546;19.254;2023-02-28T15:34:18;15.50;;;8.55;;
51214;SDS011;63849;47.546;19.254;2023-02-28T15:36:46;20.52;;;11.05;;
51214;SDS011;63849;47.546;19.254;2023-02-28T15:39:23;19.33;;;12.70;;
51214;SDS011;63849;47.546;19.254;2023-02-28T15:41:52;15.98;;;11.07;;
51214;SDS011;63849;47.546;19.254;2023-02-28T15:44:34;19.75;;;11.98;;
51214;SDS011;63849;47.546;19.254;2023-02-28T15:47:04;18.25;;;9.98;;
51214;SDS011;63849;47.546;19.254;2023-02-28T15:49:54;16.65;;;10.23;;
51214;SDS011;63849;47.546;19.254;2023-02-28T15:52:29;18.65;;;10.48;;
51214;SDS011;63849;47.546;19.254;2023-02-28T15:54:58;16.33;;;10.75;;
51214;SDS011;63849;47.546;19.254;2023-02-28T15:57:25;15.93;;;9.98;;
51214;SDS011;63849;47.546;19.254;2023-02-28T15:59:56;13.80;;;9.25;;
51214;SDS011;63849;47.546;19.254;2023-02-28T16:02:32;18.30;;;10.13;;
51214;SDS011;63849;47.546;19.254;2023-02-28T16:05:01;15.15;;;10.25;;
51214;SDS011;63849;47.546;19.254;2023-02-28T16:07:33;18.05;;;10.13;;
51214;SDS011;63849;47.546;19.254;2023-02-28T16:10:04;16.40;;;11.15;;
51214;SDS011;63849;47.546;19.254;2023-02-28T16:12:32;17.27;;;11.40;;
51214;SDS011;63849;47.546;19.254;2023-02-28T16:15:00;16.45;;;10.05;;
51214;SDS011;63849;47.546;19.254;2023-02-28T16:17:31;16.40;;;11.38;;
51214;SDS011;63849;47.546;19.254;2023-02-28T16:19:59;14.68;;;10.73;;
51214;SDS011;63849;47.546;19.254;2023-02-28T16:22:26;17.50;;;11.65;;
51214;SDS011;63849;47.546;19.254;2023-02-28T16:24:51;20.00;;;13.18;;
51214;SDS011;63849;47.546;19.254;2023-02-28T16:27:22;21.50;;;13.70;;
51214;SDS011;63849;47.546;19.254;2023-02-28T16:29:53;15.25;;;11.55;;
51214;SDS011;63849;47.546;19.254;2023-02-28T16:32:19;18.52;;;12.63;;
51214;SDS011;63849;47.546;19.254;2023-02-28T16:34:45;19.05;;;12.63;;
51214;SDS011;63849;47.546;19.254;2023-02-28T16:37:12;21.50;;;14.98;;
51214;SDS011;63849;47.546;19.254;2023-02-28T16:39:39;24.70;;;16.00;;
51214;SDS011;63849;47.546;19.254;2023-02-28T16:42:05;27.52;;;18.77;;
51214;SDS011;63849;47.546;19.254;2023-02-28T16:44:33;25.20;;;16.17;;
51214;SDS011;63849;47.546;19.254;2023-02-28T16:49:38;20.48;;;14.30;;
51214;SDS011;63849;47.546;19.254;2023-02-28T16:52:07;18.00;;;13.35;;
51214;SDS011;63849;47.546;19.254;2023-02-28T16:54:33;19.83;;;14.27;;
51214;SDS011;63849;47.546;19.254;2023-02-28T16:56:59;20.98;;;14.35;;
51214;SDS011;63849;47.546;19.254;2023-02-28T16:59:25;23.77;;;16.48;;
51214;SDS011;63849;47.546;19.254;2023-02-28T17:01:52;28.58;;;18.75;;
51214;SDS011;63849;47.546;19.254;2023-02-28T17:04:18;30.17;;;19.02;;
51214;SDS011;63849;47.546;19.254;2023-02-28T17:06:44;24.92;;;16.60;;
51214;SDS011;63849;47.546;19.254;2023-02-28T17:09:15;22.63;;;14.07;;
51214;SDS011;63849;47.546;19.254;2023-02-28T17:11:43;20.45;;;13.57;;